Terminal Aerodrome Forecast
Issued by NWS Atlanta, GA

Home | Current Version | Previous Version | Text Only | Print | Product List | Glossary On
Versions: 1 2 3 4 5 6 7 8 9 10 11 12 13 14 15 16 17 18 19 20
000
FTUS42 KFFC 042202 AAA
TAFCSG
TAF AMD
KCSG 042202Z 0422/0518 22010G20KT P6SM SCT025 BKN050
     FM050200 21008KT P6SM BKN025
     FM050600 21007KT P6SM BKN007
     FM051000 21006KT 4SM -RA BR BKN005
     FM051700 31008KT 6SM -RA BR OVC008=

USA.gov is the U.S. government's official web portal to all federal, state and local government web resources and services.